sensor_id;sensor_type;location;lat;lon;timestamp;P1;durP1;ratioP1;P2;durP2;ratioP2
10120;SDS011;5100;45.176;5.714;2022-10-16T00:00:45;5.87;;;3.62;;
10120;SDS011;5100;45.176;5.714;2022-10-16T00:03:11;31.33;;;25.48;;
10120;SDS011;5100;45.176;5.714;2022-10-16T00:05:38;24.77;;;18.75;;
10120;SDS011;5100;45.176;5.714;2022-10-16T00:08:06;31.55;;;25.05;;
10120;SDS011;5100;45.176;5.714;2022-10-16T00:10:34;16.83;;;12.18;;
10120;SDS011;5100;45.176;5.714;2022-10-16T00:13:02;27.87;;;18.98;;
10120;SDS011;5100;45.176;5.714;2022-10-16T00:15:29;40.30;;;30.30;;
10120;SDS011;5100;45.176;5.714;2022-10-16T00:17:56;22.67;;;14.63;;
10120;SDS011;5100;45.176;5.714;2022-10-16T00:20:22;18.35;;;13.57;;
10120;SDS011;5100;45.176;5.714;2022-10-16T00:22:48;7.22;;;6.00;;
10120;SDS011;5100;45.176;5.714;2022-10-16T00:25:15;7.18;;;6.47;;
10120;SDS011;5100;45.176;5.714;2022-10-16T00:27:41;20.83;;;18.30;;
10120;SDS011;5100;45.176;5.714;2022-10-16T00:30:07;9.73;;;8.60;;
10120;SDS011;5100;45.176;5.714;2022-10-16T00:32:33;10.65;;;5.80;;
10120;SDS011;5100;45.176;5.714;2022-10-16T00:34:59;7.65;;;6.75;;
10120;SDS011;5100;45.176;5.714;2022-10-16T00:37:25;18.45;;;15.73;;
10120;SDS011;5100;45.176;5.714;2022-10-16T00:39:52;18.60;;;16.33;;
10120;SDS011;5100;45.176;5.714;2022-10-16T00:42:18;11.48;;;8.48;;
10120;SDS011;5100;45.176;5.714;2022-10-16T00:44:51;9.50;;;6.00;;
10120;SDS011;5100;45.176;5.714;2022-10-16T00:47:24;8.55;;;4.25;;
10120;SDS011;5100;45.176;5.714;2022-10-16T00:50:03;4.95;;;4.45;;
10120;SDS011;5100;45.176;5.714;2022-10-16T00:52:31;7.57;;;3.80;;
10120;SDS011;5100;45.176;5.714;2022-10-16T00:54:57;9.70;;;3.22;;
10120;SDS011;5100;45.176;5.714;2022-10-16T00:57:24;3.50;;;2.78;;
10120;SDS011;5100;45.176;5.714;2022-10-16T00:59:51;6.45;;;2.67;;
10120;SDS011;5100;45.176;5.714;2022-10-16T01:02:17;5.72;;;2.62;;
10120;SDS011;5100;45.176;5.714;2022-10-16T01:04:45;7.25;;;2.50;;
10120;SDS011;5100;45.176;5.714;2022-10-16T01:12:45;4.93;;;2.25;;
10120;SDS011;5100;45.176;5.714;2022-10-16T01:18:13;6.20;;;2.37;;
10120;SDS011;5100;45.176;5.714;2022-10-16T01:21:03;3.53;;;2.47;;
10120;SDS011;5100;45.176;5.714;2022-10-16T01:29:23;6.68;;;2.70;;
10120;SDS011;5100;45.176;5.714;2022-10-16T01:31:54;4.15;;;2.50;;
10120;SDS011;5100;45.176;5.714;2022-10-16T01:34:28;7.25;;;3.03;;
10120;SDS011;5100;45.176;5.714;2022-10-16T01:37:02;5.80;;;2.60;;
10120;SDS011;5100;45.176;5.714;2022-10-16T01:39:34;3.08;;;2.33;;
10120;SDS011;5100;45.176;5.714;2022-10-16T01:42:05;3.85;;;2.55;;
10120;SDS011;5100;45.176;5.714;2022-10-16T01:44:35;2.83;;;2.37;;
10120;SDS011;5100;45.176;5.714;2022-10-16T01:47:02;4.78;;;2.42;;
10120;SDS011;5100;45.176;5.714;2022-10-16T01:49:31;7.40;;;2.62;;
10120;SDS011;5100;45.176;5.714;2022-10-16T01:52:01;3.78;;;2.15;;
10120;SDS011;5100;45.176;5.714;2022-10-16T01:54:30;4.15;;;2.37;;
10120;SDS011;5100;45.176;5.714;2022-10-16T01:57:00;5.20;;;2.50;;
10120;SDS011;5100;45.176;5.714;2022-10-16T01:59:30;4.05;;;2.50;;
10120;SDS011;5100;45.176;5.714;2022-10-16T02:01:59;3.80;;;2.22;;
10120;SDS011;5100;45.176;5.714;2022-10-16T02:04:30;2.70;;;2.45;;
10120;SDS011;5100;45.176;5.714;2022-10-16T02:07:01;5.20;;;2.50;;
10120;SDS011;5100;45.176;5.714;2022-10-16T02:09:27;5.25;;;2.60;;
10120;SDS011;5100;45.176;5.714;2022-10-16T02:11:56;5.47;;;2.50;;
10120;SDS011;5100;45.176;5.714;2022-10-16T02:14:28;5.93;;;2.60;;
10120;SDS011;5100;45.176;5.714;2022-10-16T02:16:55;5.15;;;2.90;;
10120;SDS011;5100;45.176;5.714;2022-10-16T02:19:21;4.43;;;2.60;;
10120;SDS011;5100;45.176;5.714;2022-10-16T02:21:51;6.03;;;2.87;;
10120;SDS011;5100;45.176;5.714;2022-10-16T02:24:31;2.67;;;2.47;;
10120;SDS011;5100;45.176;5.714;2022-10-16T02:27:14;7.10;;;2.92;;
10120;SDS011;5100;45.176;5.714;2022-10-16T02:29:47;2.95;;;2.70;;
10120;SDS011;5100;45.176;5.714;2022-10-16T02:32:23;3.78;;;2.80;;
10120;SDS011;5100;45.176;5.714;2022-10-16T02:34:56;4.65;;;2.70;;
10120;SDS011;5100;45.176;5.714;2022-10-16T02:37:26;2.65;;;2.45;;
10120;SDS011;5100;45.176;5.714;2022-10-16T02:39:53;4.32;;;2.83;;
10120;SDS011;5100;45.176;5.714;2022-10-16T02:42:26;3.10;;;2.80;;
10120;SDS011;5100;45.176;5.714;2022-10-16T02:44:53;3.97;;;2.80;;
10120;SDS011;5100;45.176;5.714;2022-10-16T02:47:19;3.47;;;2.47;;
10120;SDS011;5100;45.176;5.714;2022-10-16T02:49:45;5.72;;;2.65;;
10120;SDS011;5100;45.176;5.714;2022-10-16T02:52:11;4.72;;;3.00;;
10120;SDS011;5100;45.176;5.714;2022-10-16T02:54:37;7.45;;;3.00;;
10120;SDS011;5100;45.176;5.714;2022-10-16T02:57:03;4.82;;;2.97;;
10120;SDS011;5100;45.176;5.714;2022-10-16T02:59:29;6.62;;;3.05;;
10120;SDS011;5100;45.176;5.714;2022-10-16T03:01:55;5.22;;;2.80;;
10120;SDS011;5100;45.176;5.714;2022-10-16T03:04:21;5.82;;;2.72;;
10120;SDS011;5100;45.176;5.714;2022-10-16T03:06:47;5.20;;;3.05;;
10120;SDS011;5100;45.176;5.714;2022-10-16T03:09:13;3.08;;;2.72;;
10120;SDS011;5100;45.176;5.714;2022-10-16T03:11:40;5.68;;;3.20;;
10120;SDS011;5100;45.176;5.714;2022-10-16T03:14:06;7.10;;;3.08;;
10120;SDS011;5100;45.176;5.714;2022-10-16T03:16:33;3.12;;;2.65;;
10120;SDS011;5100;45.176;5.714;2022-10-16T03:18:59;5.07;;;2.87;;
10120;SDS011;5100;45.176;5.714;2022-10-16T03:21:25;5.90;;;3.50;;
10120;SDS011;5100;45.176;5.714;2022-10-16T03:23:51;3.85;;;3.00;;
10120;SDS011;5100;45.176;5.714;2022-10-16T03:26:17;3.65;;;2.95;;
10120;SDS011;5100;45.176;5.714;2022-10-16T03:28:43;7.00;;;3.30;;
10120;SDS011;5100;45.176;5.714;2022-10-16T03:31:09;3.55;;;3.00;;
10120;SDS011;5100;45.176;5.714;2022-10-16T03:33:35;3.45;;;2.87;;
10120;SDS011;5100;45.176;5.714;2022-10-16T03:36:01;3.75;;;3.05;;
10120;SDS011;5100;45.176;5.714;2022-10-16T03:38:28;7.22;;;3.33;;
10120;SDS011;5100;45.176;5.714;2022-10-16T03:40:54;6.68;;;2.90;;
10120;SDS011;5100;45.176;5.714;2022-10-16T03:43:20;5.20;;;3.10;;
10120;SDS011;5100;45.176;5.714;2022-10-16T03:45:46;5.03;;;3.00;;
10120;SDS011;5100;45.176;5.714;2022-10-16T03:48:12;3.33;;;3.03;;
10120;SDS011;5100;45.176;5.714;2022-10-16T03:50:38;4.57;;;3.12;;
10120;SDS011;5100;45.176;5.714;2022-10-16T03:53:04;6.37;;;3.20;;
10120;SDS011;5100;45.176;5.714;2022-10-16T03:55:31;4.37;;;2.97;;
10120;SDS011;5100;45.176;5.714;2022-10-16T03:57:57;6.10;;;2.67;;
10120;SDS011;5100;45.176;5.714;2022-10-16T04:00:23;10.65;;;3.10;;
10120;SDS011;5100;45.176;5.714;2022-10-16T04:02:49;4.53;;;3.00;;
10120;SDS011;5100;45.176;5.714;2022-10-16T04:05:15;3.92;;;2.95;;
10120;SDS011;5100;45.176;5.714;2022-10-16T04:07:41;3.37;;;2.78;;
10120;SDS011;5100;45.176;5.714;2022-10-16T04:10:08;4.82;;;2.92;;
10120;SDS011;5100;45.176;5.714;2022-10-16T04:12:34;6.12;;;3.15;;
10120;SDS011;5100;45.176;5.714;2022-10-16T04:15:00;4.57;;;2.90;;
10120;SDS011;5100;45.176;5.714;2022-10-16T04:17:27;3.60;;;3.03;;
10120;SDS011;5100;45.176;5.714;2022-10-16T04:19:53;5.03;;;2.85;;
10120;SDS011;5100;45.176;5.714;2022-10-16T04:22:19;3.45;;;2.97;;
10120;SDS011;5100;45.176;5.714;2022-10-16T04:24:45;6.12;;;3.47;;
10120;SDS011;5100;45.176;5.714;2022-10-16T04:27:11;4.53;;;3.40;;
10120;SDS011;5100;45.176;5.714;2022-10-16T04:29:37;6.78;;;3.42;;
10120;SDS011;5100;45.176;5.714;2022-10-16T04:32:04;6.20;;;3.75;;
10120;SDS011;5100;45.176;5.714;2022-10-16T04:34:30;5.62;;;3.67;;
10120;SDS011;5100;45.176;5.714;2022-10-16T04:36:55;4.45;;;3.45;;
10120;SDS011;5100;45.176;5.714;2022-10-16T04:39:22;4.22;;;3.78;;
10120;SDS011;5100;45.176;5.714;2022-10-16T04:41:48;6.87;;;4.10;;
10120;SDS011;5100;45.176;5.714;2022-10-16T04:44:14;6.60;;;3.87;;
10120;SDS011;5100;45.176;5.714;2022-10-16T04:46:40;8.50;;;3.95;;
10120;SDS011;5100;45.176;5.714;2022-10-16T04:49:06;8.07;;;3.90;;
10120;SDS011;5100;45.176;5.714;2022-10-16T04:51:32;4.05;;;3.40;;
10120;SDS011;5100;45.176;5.714;2022-10-16T04:53:58;5.20;;;3.70;;
10120;SDS011;5100;45.176;5.714;2022-10-16T04:56:24;4.43;;;3.70;;
10120;SDS011;5100;45.176;5.714;2022-10-16T04:58:50;5.47;;;3.42;;
10120;SDS011;5100;45.176;5.714;2022-10-16T05:01:17;7.40;;;3.70;;
10120;SDS011;5100;45.176;5.714;2022-10-16T05:03:43;3.42;;;3.12;;
10120;SDS011;5100;45.176;5.714;2022-10-16T05:06:09;4.30;;;3.45;;
10120;SDS011;5100;45.176;5.714;2022-10-16T05:08:35;4.43;;;3.33;;
10120;SDS011;5100;45.176;5.714;2022-10-16T05:11:01;3.90;;;3.30;;
10120;SDS011;5100;45.176;5.714;2022-10-16T05:13:28;4.62;;;3.25;;
10120;SDS011;5100;45.176;5.714;2022-10-16T05:15:54;9.93;;;3.55;;
10120;SDS011;5100;45.176;5.714;2022-10-16T05:18:20;5.22;;;3.83;;
10120;SDS011;5100;45.176;5.714;2022-10-16T05:20:46;4.45;;;3.30;;
10120;SDS011;5100;45.176;5.714;2022-10-16T05:23:12;5.85;;;3.55;;
10120;SDS011;5100;45.176;5.714;2022-10-16T05:25:38;4.40;;;3.10;;
10120;SDS011;5100;45.176;5.714;2022-10-16T05:28:04;8.48;;;3.78;;
10120;SDS011;5100;45.176;5.714;2022-10-16T05:30:30;5.37;;;3.35;;
10120;SDS011;5100;45.176;5.714;2022-10-16T05:32:56;3.90;;;3.37;;
10120;SDS011;5100;45.176;5.714;2022-10-16T05:35:23;6.50;;;3.58;;
10120;SDS011;5100;45.176;5.714;2022-10-16T05:37:49;4.50;;;3.35;;
10120;SDS011;5100;45.176;5.714;2022-10-16T05:40:16;4.05;;;3.45;;
10120;SDS011;5100;45.176;5.714;2022-10-16T05:42:42;4.20;;;3.65;;
10120;SDS011;5100;45.176;5.714;2022-10-16T05:45:09;3.97;;;3.47;;
10120;SDS011;5100;45.176;5.714;2022-10-16T05:47:36;6.05;;;3.60;;
10120;SDS011;5100;45.176;5.714;2022-10-16T05:50:02;4.50;;;3.50;;
10120;SDS011;5100;45.176;5.714;2022-10-16T05:52:29;6.53;;;3.78;;
10120;SDS011;5100;45.176;5.714;2022-10-16T05:54:55;4.85;;;3.67;;
10120;SDS011;5100;45.176;5.714;2022-10-16T05:57:21;7.03;;;4.22;;
10120;SDS011;5100;45.176;5.714;2022-10-16T05:59:48;5.85;;;3.60;;
10120;SDS011;5100;45.176;5.714;2022-10-16T06:02:14;4.12;;;3.70;;
10120;SDS011;5100;45.176;5.714;2022-10-16T06:04:41;6.75;;;3.60;;
10120;SDS011;5100;45.176;5.714;2022-10-16T06:07:07;6.10;;;3.80;;
10120;SDS011;5100;45.176;5.714;2022-10-16T06:09:33;4.00;;;3.47;;
10120;SDS011;5100;45.176;5.714;2022-10-16T06:11:59;3.95;;;3.40;;
10120;SDS011;5100;45.176;5.714;2022-10-16T06:14:25;4.03;;;3.58;;
10120;SDS011;5100;45.176;5.714;2022-10-16T06:16:51;4.62;;;3.70;;
10120;SDS011;5100;45.176;5.714;2022-10-16T06:19:18;5.62;;;3.80;;
10120;SDS011;5100;45.176;5.714;2022-10-16T06:21:44;5.10;;;4.03;;
10120;SDS011;5100;45.176;5.714;2022-10-16T06:24:10;5.97;;;3.50;;
10120;SDS011;5100;45.176;5.714;2022-10-16T06:26:37;7.53;;;3.70;;
10120;SDS011;5100;45.176;5.714;2022-10-16T06:29:03;5.20;;;3.70;;
10120;SDS011;5100;45.176;5.714;2022-10-16T06:31:30;3.80;;;2.95;;
10120;SDS011;5100;45.176;5.714;2022-10-16T06:33:59;6.37;;;3.60;;
10120;SDS011;5100;45.176;5.714;2022-10-16T06:36:25;4.62;;;3.25;;
10120;SDS011;5100;45.176;5.714;2022-10-16T06:38:52;7.30;;;3.47;;
10120;SDS011;5100;45.176;5.714;2022-10-16T06:41:20;6.50;;;3.60;;
10120;SDS011;5100;45.176;5.714;2022-10-16T06:43:47;4.85;;;3.60;;
10120;SDS011;5100;45.176;5.714;2022-10-16T06:46:14;5.72;;;3.72;;
10120;SDS011;5100;45.176;5.714;2022-10-16T06:48:42;6.75;;;3.37;;
10120;SDS011;5100;45.176;5.714;2022-10-16T06:51:10;4.00;;;3.30;;
10120;SDS011;5100;45.176;5.714;2022-10-16T06:53:39;5.20;;;3.47;;
10120;SDS011;5100;45.176;5.714;2022-10-16T06:56:11;6.97;;;3.75;;
10120;SDS011;5100;45.176;5.714;2022-10-16T06:58:39;4.07;;;3.70;;
10120;SDS011;5100;45.176;5.714;2022-10-16T07:01:05;6.15;;;3.92;;
10120;SDS011;5100;45.176;5.714;2022-10-16T07:03:35;7.55;;;4.15;;
10120;SDS011;5100;45.176;5.714;2022-10-16T07:06:03;6.40;;;4.18;;
10120;SDS011;5100;45.176;5.714;2022-10-16T07:08:31;6.93;;;4.00;;
10120;SDS011;5100;45.176;5.714;2022-10-16T07:11:01;4.95;;;4.32;;
10120;SDS011;5100;45.176;5.714;2022-10-16T07:13:39;4.32;;;3.90;;
10120;SDS011;5100;45.176;5.714;2022-10-16T07:16:07;5.53;;;3.87;;
10120;SDS011;5100;45.176;5.714;2022-10-16T07:18:38;6.50;;;4.07;;
10120;SDS011;5100;45.176;5.714;2022-10-16T07:21:06;7.00;;;4.25;;
10120;SDS011;5100;45.176;5.714;2022-10-16T07:23:36;10.02;;;3.78;;
10120;SDS011;5100;45.176;5.714;2022-10-16T07:26:04;6.37;;;3.72;;
10120;SDS011;5100;45.176;5.714;2022-10-16T07:28:31;5.35;;;4.05;;
10120;SDS011;5100;45.176;5.714;2022-10-16T07:31:09;4.22;;;3.83;;
10120;SDS011;5100;45.176;5.714;2022-10-16T07:33:37;4.70;;;3.40;;
10120;SDS011;5100;45.176;5.714;2022-10-16T07:36:05;4.37;;;3.75;;
10120;SDS011;5100;45.176;5.714;2022-10-16T07:38:31;4.75;;;4.25;;
10120;SDS011;5100;45.176;5.714;2022-10-16T07:40:58;5.28;;;4.07;;
10120;SDS011;5100;45.176;5.714;2022-10-16T07:43:25;5.62;;;4.22;;
10120;SDS011;5100;45.176;5.714;2022-10-16T07:45:52;5.45;;;4.25;;
10120;SDS011;5100;45.176;5.714;2022-10-16T07:48:21;4.53;;;3.80;;
10120;SDS011;5100;45.176;5.714;2022-10-16T07:50:48;7.78;;;4.25;;
10120;SDS011;5100;45.176;5.714;2022-10-16T07:53:14;8.20;;;4.05;;
10120;SDS011;5100;45.176;5.714;2022-10-16T07:55:41;6.28;;;4.18;;
10120;SDS011;5100;45.176;5.714;2022-10-16T07:58:07;4.07;;;3.55;;
10120;SDS011;5100;45.176;5.714;2022-10-16T08:00:33;6.20;;;4.25;;
10120;SDS011;5100;45.176;5.714;2022-10-16T08:03:05;4.40;;;3.45;;
10120;SDS011;5100;45.176;5.714;2022-10-16T08:05:31;4.93;;;3.20;;
10120;SDS011;5100;45.176;5.714;2022-10-16T08:07:58;4.45;;;2.65;;
10120;SDS011;5100;45.176;5.714;2022-10-16T08:10:25;3.22;;;2.70;;
10120;SDS011;5100;45.176;5.714;2022-10-16T08:12:52;4.95;;;3.10;;
10120;SDS011;5100;45.176;5.714;2022-10-16T08:15:19;3.15;;;2.50;;
10120;SDS011;5100;45.176;5.714;2022-10-16T08:17:58;4.22;;;2.70;;
10120;SDS011;5100;45.176;5.714;2022-10-16T08:20:28;3.20;;;2.30;;
10120;SDS011;5100;45.176;5.714;2022-10-16T08:22:55;5.53;;;2.70;;
10120;SDS011;5100;45.176;5.714;2022-10-16T08:25:21;4.65;;;2.20;;
10120;SDS011;5100;45.176;5.714;2022-10-16T08:27:48;2.12;;;1.90;;
10120;SDS011;5100;45.176;5.714;2022-10-16T08:30:15;1.98;;;1.70;;
10120;SDS011;5100;45.176;5.714;2022-10-16T08:32:42;2.15;;;1.95;;
10120;SDS011;5100;45.176;5.714;2022-10-16T08:35:09;2.12;;;1.92;;
10120;SDS011;5100;45.176;5.714;2022-10-16T08:37:36;4.75;;;2.00;;
10120;SDS011;5100;45.176;5.714;2022-10-16T08:40:03;2.70;;;1.90;;
10120;SDS011;5100;45.176;5.714;2022-10-16T08:45:40;3.33;;;2.03;;
10120;SDS011;5100;45.176;5.714;2022-10-16T08:48:20;5.80;;;1.80;;
10120;SDS011;5100;45.176;5.714;2022-10-16T08:50:54;2.12;;;1.67;;
10120;SDS011;5100;45.176;5.714;2022-10-16T08:53:30;2.28;;;1.70;;
10120;SDS011;5100;45.176;5.714;2022-10-16T08:56:02;3.62;;;1.70;;
10120;SDS011;5100;45.176;5.714;2022-10-16T08:58:29;4.90;;;1.75;;
10120;SDS011;5100;45.176;5.714;2022-10-16T09:00:57;3.90;;;1.40;;
10120;SDS011;5100;45.176;5.714;2022-10-16T09:14:14;4.15;;;1.52;;
10120;SDS011;5100;45.176;5.714;2022-10-16T09:16:48;2.87;;;1.60;;
10120;SDS011;5100;45.176;5.714;2022-10-16T09:19:36;3.28;;;1.67;;
10120;SDS011;5100;45.176;5.714;2022-10-16T09:22:10;2.87;;;1.83;;
10120;SDS011;5100;45.176;5.714;2022-10-16T09:24:40;2.97;;;1.50;;
10120;SDS011;5100;45.176;5.714;2022-10-16T09:27:13;5.25;;;1.52;;
10120;SDS011;5100;45.176;5.714;2022-10-16T09:29:40;3.20;;;1.50;;
10120;SDS011;5100;45.176;5.714;2022-10-16T09:32:13;1.77;;;1.65;;
10120;SDS011;5100;45.176;5.714;2022-10-16T09:34:43;4.25;;;1.70;;
10120;SDS011;5100;45.176;5.714;2022-10-16T09:37:14;1.92;;;1.70;;
10120;SDS011;5100;45.176;5.714;2022-10-16T09:39:44;3.00;;;1.65;;
10120;SDS011;5100;45.176;5.714;2022-10-16T09:42:14;2.70;;;2.10;;
10120;SDS011;5100;45.176;5.714;2022-10-16T09:44:53;3.03;;;1.80;;
10120;SDS011;5100;45.176;5.714;2022-10-16T09:47:20;1.92;;;1.73;;
10120;SDS011;5100;45.176;5.714;2022-10-16T09:49:59;5.97;;;1.95;;
10120;SDS011;5100;45.176;5.714;2022-10-16T09:52:29;3.65;;;2.37;;
10120;SDS011;5100;45.176;5.714;2022-10-16T09:54:57;4.90;;;2.03;;
10120;SDS011;5100;45.176;5.714;2022-10-16T09:57:27;4.40;;;2.20;;
10120;SDS011;5100;45.176;5.714;2022-10-16T09:59:56;5.05;;;2.20;;
10120;SDS011;5100;45.176;5.714;2022-10-16T10:02:29;4.75;;;2.00;;
10120;SDS011;5100;45.176;5.714;2022-10-16T10:05:04;2.25;;;2.05;;
10120;SDS011;5100;45.176;5.714;2022-10-16T10:07:33;4.25;;;2.03;;
10120;SDS011;5100;45.176;5.714;2022-10-16T10:10:05;3.97;;;2.33;;
10120;SDS011;5100;45.176;5.714;2022-10-16T10:12:45;5.45;;;2.40;;
10120;SDS011;5100;45.176;5.714;2022-10-16T10:15:11;6.78;;;2.47;;
10120;SDS011;5100;45.176;5.714;2022-10-16T10:17:45;2.60;;;2.40;;
10120;SDS011;5100;45.176;5.714;2022-10-16T10:20:29;15.80;;;2.03;;
10120;SDS011;5100;45.176;5.714;2022-10-16T10:23:22;5.37;;;2.03;;
10120;SDS011;5100;45.176;5.714;2022-10-16T10:26:00;2.10;;;1.90;;
10120;SDS011;5100;45.176;5.714;2022-10-16T10:31:38;4.87;;;2.10;;
10120;SDS011;5100;45.176;5.714;2022-10-16T10:37:08;5.85;;;2.40;;
10120;SDS011;5100;45.176;5.714;2022-10-16T10:39:56;2.50;;;2.10;;
10120;SDS011;5100;45.176;5.714;2022-10-16T10:45:25;4.12;;;2.17;;
10120;SDS011;5100;45.176;5.714;2022-10-16T10:48:17;6.22;;;2.55;;
10120;SDS011;5100;45.176;5.714;2022-10-16T10:50:56;3.75;;;2.03;;
10120;SDS011;5100;45.176;5.714;2022-10-16T11:01:23;3.80;;;2.60;;
10120;SDS011;5100;45.176;5.714;2022-10-16T11:06:52;6.75;;;2.08;;
10120;SDS011;5100;45.176;5.714;2022-10-16T11:09:43;2.72;;;1.92;;
10120;SDS011;5100;45.176;5.714;2022-10-16T11:12:20;5.07;;;1.98;;
10120;SDS011;5100;45.176;5.714;2022-10-16T11:17:48;4.82;;;2.00;;
10120;SDS011;5100;45.176;5.714;2022-10-16T11:20:30;3.92;;;2.12;;
10120;SDS011;5100;45.176;5.714;2022-10-16T11:23:10;3.95;;;2.10;;
10120;SDS011;5100;45.176;5.714;2022-10-16T11:26:02;2.10;;;1.92;;
10120;SDS011;5100;45.176;5.714;2022-10-16T11:28:39;2.20;;;1.90;;
10120;SDS011;5100;45.176;5.714;2022-10-16T11:33:44;2.17;;;1.98;;
10120;SDS011;5100;45.176;5.714;2022-10-16T11:41:37;2.78;;;2.25;;
10120;SDS011;5100;45.176;5.714;2022-10-16T11:49:37;5.05;;;2.60;;
10120;SDS011;5100;45.176;5.714;2022-10-16T11:52:15;3.22;;;2.30;;
10120;SDS011;5100;45.176;5.714;2022-10-16T11:57:31;2.45;;;2.20;;
10120;SDS011;5100;45.176;5.714;2022-10-16T12:00:02;3.67;;;2.20;;
10120;SDS011;5100;45.176;5.714;2022-10-16T12:02:47;5.05;;;2.45;;
10120;SDS011;5100;45.176;5.714;2022-10-16T12:05:23;3.28;;;1.80;;
10120;SDS011;5100;45.176;5.714;2022-10-16T12:08:12;2.47;;;1.40;;
10120;SDS011;5100;45.176;5.714;2022-10-16T12:10:42;2.72;;;1.50;;
10120;SDS011;5100;45.176;5.714;2022-10-16T12:13:29;3.83;;;1.70;;
10120;SDS011;5100;45.176;5.714;2022-10-16T12:16:05;1.60;;;1.50;;
10120;SDS011;5100;45.176;5.714;2022-10-16T12:18:42;6.47;;;1.75;;
10120;SDS011;5100;45.176;5.714;2022-10-16T12:21:11;1.62;;;1.50;;
10120;SDS011;5100;45.176;5.714;2022-10-16T12:23:46;2.87;;;1.65;;
10120;SDS011;5100;45.176;5.714;2022-10-16T12:26:26;1.80;;;1.70;;
10120;SDS011;5100;45.176;5.714;2022-10-16T12:28:54;1.98;;;1.75;;
10120;SDS011;5100;45.176;5.714;2022-10-16T12:31:21;2.50;;;1.70;;
10120;SDS011;5100;45.176;5.714;2022-10-16T12:33:57;4.57;;;1.50;;
10120;SDS011;5100;45.176;5.714;2022-10-16T12:36:36;2.60;;;1.70;;
10120;SDS011;5100;45.176;5.714;2022-10-16T12:39:02;1.52;;;1.30;;
10120;SDS011;5100;45.176;5.714;2022-10-16T12:41:30;2.12;;;1.58;;
10120;SDS011;5100;45.176;5.714;2022-10-16T12:44:00;2.42;;;1.48;;
10120;SDS011;5100;45.176;5.714;2022-10-16T12:51:37;3.05;;;1.37;;
10120;SDS011;5100;45.176;5.714;2022-10-16T12:54:10;3.10;;;1.50;;
10120;SDS011;5100;45.176;5.714;2022-10-16T12:59:42;2.30;;;1.55;;
10120;SDS011;5100;45.176;5.714;2022-10-16T13:10:36;1.60;;;1.50;;
10120;SDS011;5100;45.176;5.714;2022-10-16T13:27:18;1.60;;;1.23;;
10120;SDS011;5100;45.176;5.714;2022-10-16T13:30:02;2.30;;;1.25;;
10120;SDS011;5100;45.176;5.714;2022-10-16T13:32:48;1.75;;;1.35;;
10120;SDS011;5100;45.176;5.714;2022-10-16T13:35:20;1.60;;;1.48;;
10120;SDS011;5100;45.176;5.714;2022-10-16T13:43:32;1.40;;;1.30;;
10120;SDS011;5100;45.176;5.714;2022-10-16T13:46:05;5.85;;;1.65;;
10120;SDS011;5100;45.176;5.714;2022-10-16T13:48:42;1.48;;;1.25;;
10120;SDS011;5100;45.176;5.714;2022-10-16T13:51:13;1.30;;;1.20;;
10120;SDS011;5100;45.176;5.714;2022-10-16T13:53:41;1.83;;;1.15;;
10120;SDS011;5100;45.176;5.714;2022-10-16T13:56:10;1.75;;;1.40;;
10120;SDS011;5100;45.176;5.714;2022-10-16T13:58:37;2.42;;;1.33;;
10120;SDS011;5100;45.176;5.714;2022-10-16T14:01:05;1.40;;;1.30;;
10120;SDS011;5100;45.176;5.714;2022-10-16T14:03:51;1.73;;;1.50;;
10120;SDS011;5100;45.176;5.714;2022-10-16T14:06:19;4.85;;;1.52;;
10120;SDS011;5100;45.176;5.714;2022-10-16T14:08:50;1.40;;;1.30;;
10120;SDS011;5100;45.176;5.714;2022-10-16T14:11:25;3.80;;;1.60;;
10120;SDS011;5100;45.176;5.714;2022-10-16T14:13:51;1.35;;;1.25;;
10120;SDS011;5100;45.176;5.714;2022-10-16T14:16:22;2.55;;;1.20;;
10120;SDS011;5100;45.176;5.714;2022-10-16T14:18:55;2.35;;;1.40;;
10120;SDS011;5100;45.176;5.714;2022-10-16T14:21:22;1.92;;;1.40;;
10120;SDS011;5100;45.176;5.714;2022-10-16T14:23:48;2.42;;;1.67;;
10120;SDS011;5100;45.176;5.714;2022-10-16T14:26:16;2.37;;;1.45;;
10120;SDS011;5100;45.176;5.714;2022-10-16T14:28:44;2.55;;;1.50;;
10120;SDS011;5100;45.176;5.714;2022-10-16T14:31:33;4.32;;;1.40;;
10120;SDS011;5100;45.176;5.714;2022-10-16T14:34:01;1.90;;;1.62;;
10120;SDS011;5100;45.176;5.714;2022-10-16T14:36:28;1.35;;;1.10;;
10120;SDS011;5100;45.176;5.714;2022-10-16T14:39:04;3.03;;;1.23;;
10120;SDS011;5100;45.176;5.714;2022-10-16T14:41:43;4.57;;;1.33;;
10120;SDS011;5100;45.176;5.714;2022-10-16T14:44:12;3.30;;;1.35;;
10120;SDS011;5100;45.176;5.714;2022-10-16T14:46:39;2.50;;;1.23;;
10120;SDS011;5100;45.176;5.714;2022-10-16T14:51:37;2.47;;;1.73;;
10120;SDS011;5100;45.176;5.714;2022-10-16T14:54:08;1.73;;;1.50;;
10120;SDS011;5100;45.176;5.714;2022-10-16T14:56:48;1.80;;;1.45;;
10120;SDS011;5100;45.176;5.714;2022-10-16T14:59:24;2.75;;;1.50;;
10120;SDS011;5100;45.176;5.714;2022-10-16T15:01:57;2.62;;;1.70;;
10120;SDS011;5100;45.176;5.714;2022-10-16T15:04:24;4.07;;;1.40;;
10120;SDS011;5100;45.176;5.714;2022-10-16T15:06:50;2.37;;;1.35;;
10120;SDS011;5100;45.176;5.714;2022-10-16T15:09:16;3.12;;;1.50;;
10120;SDS011;5100;45.176;5.714;2022-10-16T15:11:42;4.50;;;1.85;;
10120;SDS011;5100;45.176;5.714;2022-10-16T15:14:12;2.62;;;1.70;;
10120;SDS011;5100;45.176;5.714;2022-10-16T15:16:39;1.70;;;1.40;;
10120;SDS011;5100;45.176;5.714;2022-10-16T15:19:05;3.25;;;1.62;;
10120;SDS011;5100;45.176;5.714;2022-10-16T15:21:31;2.90;;;1.30;;
10120;SDS011;5100;45.176;5.714;2022-10-16T15:23:58;4.37;;;1.67;;
10120;SDS011;5100;45.176;5.714;2022-10-16T15:26:26;3.65;;;1.60;;
10120;SDS011;5100;45.176;5.714;2022-10-16T15:28:54;2.25;;;1.25;;
10120;SDS011;5100;45.176;5.714;2022-10-16T15:31:21;3.35;;;1.70;;
10120;SDS011;5100;45.176;5.714;2022-10-16T15:33:51;2.60;;;1.50;;
10120;SDS011;5100;45.176;5.714;2022-10-16T15:36:31;2.55;;;1.60;;
10120;SDS011;5100;45.176;5.714;2022-10-16T15:39:00;2.72;;;1.50;;
10120;SDS011;5100;45.176;5.714;2022-10-16T15:41:26;2.80;;;1.65;;
10120;SDS011;5100;45.176;5.714;2022-10-16T15:43:52;2.70;;;1.73;;
10120;SDS011;5100;45.176;5.714;2022-10-16T15:46:19;1.77;;;1.35;;
10120;SDS011;5100;45.176;5.714;2022-10-16T15:48:47;1.58;;;1.30;;
10120;SDS011;5100;45.176;5.714;2022-10-16T15:51:14;2.37;;;1.50;;
10120;SDS011;5100;45.176;5.714;2022-10-16T15:53:40;3.22;;;1.48;;
10120;SDS011;5100;45.176;5.714;2022-10-16T15:56:07;4.35;;;2.00;;
10120;SDS011;5100;45.176;5.714;2022-10-16T15:58:34;2.75;;;1.90;;
10120;SDS011;5100;45.176;5.714;2022-10-16T16:01:00;4.00;;;1.80;;
10120;SDS011;5100;45.176;5.714;2022-10-16T16:03:29;4.03;;;1.70;;
10120;SDS011;5100;45.176;5.714;2022-10-16T16:05:56;2.85;;;1.77;;
10120;SDS011;5100;45.176;5.714;2022-10-16T16:08:22;2.65;;;1.80;;
10120;SDS011;5100;45.176;5.714;2022-10-16T16:11:08;2.17;;;1.80;;
10120;SDS011;5100;45.176;5.714;2022-10-16T16:13:35;1.50;;;1.40;;
10120;SDS011;5100;45.176;5.714;2022-10-16T16:16:11;4.95;;;1.73;;
10120;SDS011;5100;45.176;5.714;2022-10-16T16:18:39;3.10;;;1.60;;
10120;SDS011;5100;45.176;5.714;2022-10-16T16:21:06;2.03;;;1.70;;
10120;SDS011;5100;45.176;5.714;2022-10-16T16:23:32;4.05;;;1.85;;
10120;SDS011;5100;45.176;5.714;2022-10-16T16:28:41;3.28;;;1.67;;
10120;SDS011;5100;45.176;5.714;2022-10-16T16:33:41;3.50;;;1.90;;
10120;SDS011;5100;45.176;5.714;2022-10-16T16:36:07;4.07;;;1.83;;
10120;SDS011;5100;45.176;5.714;2022-10-16T16:38:33;1.73;;;1.62;;
10120;SDS011;5100;45.176;5.714;2022-10-16T16:41:01;4.18;;;1.70;;
10120;SDS011;5100;45.176;5.714;2022-10-16T16:43:40;2.95;;;1.80;;
10120;SDS011;5100;45.176;5.714;2022-10-16T16:46:06;6.65;;;2.10;;
10120;SDS011;5100;45.176;5.714;2022-10-16T16:48:32;5.40;;;1.65;;
10120;SDS011;5100;45.176;5.714;2022-10-16T16:51:04;3.55;;;1.70;;
10120;SDS011;5100;45.176;5.714;2022-10-16T16:53:35;4.93;;;1.85;;
10120;SDS011;5100;45.176;5.714;2022-10-16T16:56:13;2.12;;;1.60;;
10120;SDS011;5100;45.176;5.714;2022-10-16T16:58:39;2.53;;;1.55;;
10120;SDS011;5100;45.176;5.714;2022-10-16T17:01:05;4.68;;;1.90;;
10120;SDS011;5100;45.176;5.714;2022-10-16T17:03:34;2.45;;;1.70;;
10120;SDS011;5100;45.176;5.714;2022-10-16T17:06:02;2.92;;;2.08;;